Time;durP1;ratioP1;P1;durP2;ratioP2;P2;SDS_P1;SDS_P2;PMS_P1;PMS_P2;Temp;Humidity;BMP_temperature;BMP_pressure;BME280_temperature;BME280_humidity;BME280_pressure;Samples;Min_cycle;Max_cycle;Signal;HPM_P1;HPM_P2
2022/01/02 00:01:46;;;;;;;;;2.00;2.00;;;;;12.54;76.84;100099.75;5089206;28;9866;-66
2022/01/02 00:04:14;;;;;;;;;1.50;0.75;;;;;12.57;76.85;100083.47;5091382;28;8846;-65
2022/01/02 00:06:42;;;;;;;;;3.50;3.00;;;;;12.59;76.46;100076.19;5092497;28;9495;-65
2022/01/02 00:09:10;;;;;;;;;1.00;1.00;;;;;12.59;76.71;100068.16;5091639;28;8853;-66
2022/01/02 00:11:37;;;;;;;;;1.50;1.50;;;;;12.60;76.37;100071.69;5091408;28;8822;-66
2022/01/02 00:14:08;;;;;;;;;3.00;3.00;;;;;12.59;76.28;100059.28;5091447;28;8876;-66
2022/01/02 00:16:36;;;;;;;;;4.00;3.50;;;;;12.58;75.73;100069.16;5091063;28;8838;-66
2022/01/02 00:19:08;;;;;;;;;2.00;1.00;;;;;12.58;76.11;100062.94;5091869;28;8860;-67
2022/01/02 00:21:40;;;;;;;;;1.00;1.00;;;;;12.60;76.40;100061.00;5089995;28;8838;-66
2022/01/02 00:24:10;;;;;;;;;2.00;2.00;;;;;12.62;75.70;100053.69;5089882;28;8846;-65
2022/01/02 00:26:41;;;;;;;;;2.00;2.00;;;;;12.65;75.74;100042.72;5090413;28;8880;-66
2022/01/02 00:29:08;;;;;;;;;1.50;1.00;;;;;12.67;75.42;100043.44;5092333;28;8861;-65
2022/01/02 00:31:36;;;;;;;;;2.50;1.50;;;;;12.68;75.01;100042.50;5091738;28;8902;-67
2022/01/02 00:34:04;;;;;;;;;3.00;3.00;;;;;12.72;74.55;100038.56;5091990;28;8837;-65
2022/01/02 00:36:31;;;;;;;;;3.75;3.75;;;;;12.75;74.91;100043.66;5090738;28;8846;-66
2022/01/02 00:38:59;;;;;;;;;1.50;1.50;;;;;12.76;75.00;100037.31;5090568;28;8844;-65
2022/01/02 00:41:27;;;;;;;;;5.50;3.00;;;;;12.79;75.07;100045.91;5090158;28;8853;-65
2022/01/02 00:43:55;;;;;;;;;3.00;3.00;;;;;12.81;74.92;100040.41;5090816;28;8830;-65
2022/01/02 00:46:22;;;;;;;;;2.50;2.00;;;;;12.81;75.16;100049.28;5091234;28;8865;-65
2022/01/02 00:48:50;;;;;;;;;4.00;3.00;;;;;12.82;75.20;100040.28;5091288;28;8849;-65
2022/01/02 00:51:18;;;;;;;;;3.00;3.00;;;;;12.81;74.88;100043.94;5090197;28;9745;-65
2022/01/02 00:53:45;;;;;;;;;3.00;3.00;;;;;12.81;75.16;100049.28;5090269;28;8838;-66
2022/01/02 00:56:13;;;;;;;;;2.50;2.50;;;;;12.82;75.14;100042.09;5091044;28;8857;-65
2022/01/02 00:58:41;;;;;;;;;2.00;2.00;;;;;12.83;75.25;100047.31;5091400;28;8872;-65
2022/01/02 01:01:08;;;;;;;;;0.50;0.50;;;;;12.84;75.32;100048.19;5090198;28;8930;-65
2022/01/02 01:03:38;;;;;;;;;1.25;1.25;;;;;12.84;75.17;100058.88;5090638;28;8850;-65
2022/01/02 01:06:06;;;;;;;;;3.75;2.50;;;;;12.85;75.19;100056.06;5091038;28;8837;-65
2022/01/02 01:08:35;;;;;;;;;1.50;1.50;;;;;12.88;75.31;100050.47;5090414;28;8837;-65
2022/01/02 01:11:02;;;;;;;;;2.50;2.50;;;;;12.94;75.02;100057.09;5090928;28;9579;-65
2022/01/02 01:13:30;;;;;;;;;0.25;0.25;;;;;12.95;74.60;100059.66;5089872;28;8837;-65
2022/01/02 01:15:58;;;;;;;;;2.50;2.50;;;;;12.98;74.61;100066.59;5091669;28;8876;-65
2022/01/02 01:18:26;;;;;;;;;0.75;0.75;;;;;13.00;74.43;100067.28;5089401;28;8830;-65
2022/01/02 01:20:54;;;;;;;;;3.25;2.50;;;;;13.02;74.31;100078.69;5089287;28;8961;-64
2022/01/02 01:23:22;;;;;;;;;1.00;1.00;;;;;13.05;74.42;100073.09;5088643;28;9129;-65
2022/01/02 01:25:49;;;;;;;;;1.00;1.00;;;;;13.06;74.50;100072.09;5089244;28;8838;-65
2022/01/02 01:28:17;;;;;;;;;2.00;1.00;;;;;13.05;73.94;100078.44;5089674;28;8887;-64
2022/01/02 01:30:45;;;;;;;;;1.00;1.00;;;;;13.07;74.21;100082.63;5090432;28;9493;-65
2022/01/02 01:33:12;;;;;;;;;2.00;2.00;;;;;13.07;74.12;100096.00;5090324;28;8837;-65
2022/01/02 01:35:42;;;;;;;;;1.00;1.00;;;;;13.08;74.46;100083.50;5090263;28;8833;-65
2022/01/02 01:38:10;;;;;;;;;3.00;3.00;;;;;13.09;74.04;100085.19;5090181;28;9870;-65
2022/01/02 01:40:38;;;;;;;;;3.00;3.00;;;;;13.08;74.03;100084.31;5090259;28;8870;-65
2022/01/02 01:43:05;;;;;;;;;1.00;1.00;;;;;13.08;73.67;100081.66;5089923;28;8834;-65
2022/01/02 01:45:33;;;;;;;;;3.00;3.00;;;;;13.07;73.52;100085.31;5089594;28;8842;-65
2022/01/02 01:48:01;;;;;;;;;1.00;1.00;;;;;13.05;73.63;100086.44;5091181;28;8846;-65
2022/01/02 01:50:29;;;;;;;;;3.00;3.00;;;;;13.03;73.89;100081.22;5089837;28;8838;-64
2022/01/02 01:52:57;;;;;;;;;4.50;3.75;;;;;13.01;73.57;100083.19;5090331;28;8865;-65
2022/01/02 01:55:30;;;;;;;;;4.50;3.00;;;;;12.99;74.21;100066.41;5090498;28;8838;-65
2022/01/02 01:57:57;;;;;;;;;3.00;3.00;;;;;12.99;74.03;100058.41;5088853;28;9529;-65
2022/01/02 02:00:25;;;;;;;;;3.00;2.50;;;;;12.99;73.65;100065.59;5089104;28;8856;-65
2022/01/02 02:02:53;;;;;;;;;2.50;2.50;;;;;12.98;73.72;100070.09;5090753;28;8861;-65
2022/01/02 02:05:21;;;;;;;;;3.00;3.00;;;;;12.99;74.00;100065.59;5090365;28;8866;-64
2022/01/02 02:07:49;;;;;;;;;3.50;3.50;;;;;12.99;73.50;100058.41;5090342;28;8864;-65
2022/01/02 02:10:18;;;;;;;;;1.00;1.00;;;;;13.00;73.77;100067.28;5089593;28;8846;-64
2022/01/02 02:12:46;;;;;;;;;1.00;1.00;;;;;13.01;73.89;100075.19;5090502;28;8872;-65
2022/01/02 02:15:14;;;;;;;;;0.00;0.00;;;;;13.03;73.34;100069.69;5090716;28;8857;-64
2022/01/02 02:17:42;;;;;;;;;1.00;1.00;;;;;13.04;73.55;100076.72;5091114;28;8895;-65
2022/01/02 02:20:10;;;;;;;;;3.00;3.00;;;;;13.07;73.66;100063.09;5090530;28;9511;-65
2022/01/02 02:22:39;;;;;;;;;1.00;1.00;;;;;13.11;73.22;100072.53;5090199;28;8858;-65
2022/01/02 02:25:07;;;;;;;;;2.50;2.50;;;;;13.16;73.15;100068.50;5088988;28;8838;-64
2022/01/02 02:27:35;;;;;;;;;2.00;2.00;;;;;13.22;73.11;100064.41;5089816;28;8865;-64
2022/01/02 02:30:03;;;;;;;;;1.00;1.00;;;;;13.24;72.76;100052.59;5089392;28;8834;-64
2022/01/02 02:32:30;;;;;;;;;1.00;1.00;;;;;13.27;72.66;100044.28;5090284;28;8888;-65
2022/01/02 02:34:58;;;;;;;;;4.00;4.00;;;;;13.28;72.27;100047.84;5090947;28;9507;-64
2022/01/02 02:37:29;;;;;;;;;3.00;3.00;;;;;13.27;72.76;100036.28;5092693;28;8853;-65
2022/01/02 02:39:57;;;;;;;;;0.25;0.25;;;;;13.26;72.55;100026.56;5093162;28;8872;-64
2022/01/02 02:42:34;;;;;;;;;3.50;2.50;;;;;13.26;72.97;100028.38;5092881;28;9688;-65
2022/01/02 02:48:57;;;;;;;;;4.00;3.00;;;;;13.27;72.85;100038.09;5093397;28;8846;-65
2022/01/02 02:50:37;;;;;;;;;1.00;1.00;;;;;13.24;72.99;100059.78;5093059;28;8844;-65
2022/01/02 02:53:05;;;;;;;;;2.50;2.50;;;;;13.24;72.69;100051.75;5092079;28;9561;-65
2022/01/02 02:55:42;;;;;;;;;3.00;3.00;;;;;13.26;72.78;100044.44;5092646;28;8850;-65
2022/01/02 02:58:38;;;;;;;;;3.00;3.00;;;;;13.25;73.12;100042.75;5092565;28;8992;-65
2022/01/02 03:00:58;;;;;;;;;3.00;2.50;;;;;13.26;72.98;100028.38;5092826;28;8834;-65
2022/01/02 03:03:25;;;;;;;;;3.75;2.50;;;;;13.26;72.85;100033.72;5093932;28;8964;-65
2022/01/02 03:05:53;;;;;;;;;3.00;3.00;;;;;13.26;73.13;100025.69;5093242;28;8830;-64
2022/01/02 03:08:21;;;;;;;;;3.50;3.00;;;;;13.26;72.99;100013.19;5092416;28;8850;-65
2022/01/02 03:10:49;;;;;;;;;1.00;1.00;;;;;13.25;72.74;100011.50;5093328;28;8879;-65
2022/01/02 03:13:16;;;;;;;;;3.00;1.00;;;;;13.28;72.37;100010.41;5092335;28;8848;-64
2022/01/02 03:15:44;;;;;;;;;2.00;1.00;;;;;13.29;73.25;99993.34;5093445;28;8849;-64
2022/01/02 03:18:12;;;;;;;;;3.25;3.00;;;;;13.28;72.66;99981.78;5092946;28;8842;-66
2022/01/02 03:20:40;;;;;;;;;0.00;0.00;;;;;13.28;73.12;99989.00;5092379;28;8850;-65
2022/01/02 03:23:08;;;;;;;;;3.00;3.00;;;;;13.25;73.11;99989.25;5092012;28;8829;-66
2022/01/02 03:25:35;;;;;;;;;2.50;2.50;;;;;13.24;73.17;100001.78;5092215;28;8861;-65
2022/01/02 03:28:03;;;;;;;;;0.00;0.00;;;;;13.21;73.16;99993.19;5092618;28;8857;-65
2022/01/02 03:30:31;;;;;;;;;2.00;1.50;;;;;13.19;73.27;99979.09;5091088;28;8968;-65
2022/01/02 03:32:58;;;;;;;;;1.00;0.50;;;;;13.17;73.81;99986.41;5091889;28;8834;-65
2022/01/02 03:35:27;;;;;;;;;3.50;3.00;;;;;13.17;73.03;99981.94;5092986;28;8845;-65
2022/01/02 03:37:54;;;;;;;;;1.00;1.00;;;;;13.15;73.41;99975.03;5092289;28;9271;-65
2022/01/02 03:40:22;;;;;;;;;3.00;3.00;;;;;13.14;73.75;99970.66;5092155;28;8845;-65
2022/01/02 03:42:50;;;;;;;;;4.00;3.75;;;;;13.11;73.45;99979.81;5091978;28;8962;-65
2022/01/02 03:45:18;;;;;;;;;3.00;1.50;;;;;13.09;73.61;99986.25;5091806;28;9013;-65
2022/01/02 03:47:46;;;;;;;;;3.25;2.50;;;;;13.06;73.31;99976.69;5092157;28;8850;-66
2022/01/02 03:50:13;;;;;;;;;3.25;3.25;;;;;13.03;73.79;99970.75;5091684;28;8853;-65
2022/01/02 03:52:41;;;;;;;;;1.00;1.00;;;;;13.02;73.39;99967.25;5091273;28;8968;-65
2022/01/02 03:55:09;;;;;;;;;1.00;1.00;;;;;13.01;73.30;99965.56;5092224;28;8838;-65
2022/01/02 03:57:37;;;;;;;;;5.25;5.25;;;;;13.01;73.38;99976.25;5091699;28;9092;-64
2022/01/02 04:00:04;;;;;;;;;3.50;3.00;;;;;13.02;73.73;99971.75;5091728;28;8860;-65
2022/01/02 04:02:32;;;;;;;;;3.00;1.00;;;;;13.02;73.32;99972.59;5091879;28;8972;-66
2022/01/02 04:05:00;;;;;;;;;1.00;0.75;;;;;13.03;73.44;99968.09;5091847;28;8854;-66
2022/01/02 04:07:28;;;;;;;;;2.00;2.00;;;;;13.06;73.26;99967.84;5091294;28;8972;-65
2022/01/02 04:09:56;;;;;;;;;1.00;1.00;;;;;13.04;73.47;99959.06;5091916;28;8850;-66
2022/01/02 04:12:24;;;;;;;;;2.50;2.50;;;;;13.02;73.47;99958.38;5091254;28;8868;-65
2022/01/02 04:14:52;;;;;;;;;4.00;4.00;;;;;12.97;74.13;99939.22;5091265;28;8972;-66
2022/01/02 04:17:20;;;;;;;;;3.00;3.00;;;;;12.92;74.19;99944.13;5091768;28;8981;-65
2022/01/02 04:19:47;;;;;;;;;3.50;3.00;;;;;12.83;74.35;99935.09;5091328;28;8841;-66
2022/01/02 04:22:15;;;;;;;;;0.00;0.00;;;;;12.75;74.68;99932.25;5090264;28;8984;-65
2022/01/02 04:24:43;;;;;;;;;3.00;1.00;;;;;12.70;74.42;99928.31;5090603;28;8850;-65
2022/01/02 04:27:11;;;;;;;;;3.00;2.00;;;;;12.64;75.14;99926.16;5091562;28;8858;-65
2022/01/02 04:29:38;;;;;;;;;2.50;2.50;;;;;12.59;75.15;99921.22;5090562;28;8859;-65
2022/01/02 04:32:06;;;;;;;;;1.00;1.00;;;;;12.56;75.13;99920.66;5091831;28;8865;-65
2022/01/02 04:34:34;;;;;;;;;2.00;2.00;;;;;12.54;75.51;99914.59;5091363;28;8992;-65
2022/01/02 04:37:04;;;;;;;;;0.50;0.50;;;;;12.52;75.10;99919.22;5091841;28;8972;-65
2022/01/02 04:39:32;;;;;;;;;2.00;2.00;;;;;12.52;75.81;99920.06;5090836;28;8853;-65
2022/01/02 04:41:59;;;;;;;;;2.00;2.00;;;;;12.52;75.43;99909.41;5090600;28;8862;-65
2022/01/02 04:44:27;;;;;;;;;1.00;1.00;;;;;12.51;75.70;99906.84;5091603;28;8988;-65
2022/01/02 04:46:55;;;;;;;;;3.00;3.00;;;;;12.52;75.64;99911.19;5091360;28;9535;-65
2022/01/02 04:49:23;;;;;;;;;1.00;1.00;;;;;12.50;75.76;99910.50;5091263;28;8846;-65
2022/01/02 04:51:53;;;;;;;;;1.00;1.00;;;;;12.52;76.14;99921.88;5090675;28;8837;-65
2022/01/02 04:54:21;;;;;;;;;3.00;3.00;;;;;12.52;76.14;99914.72;5090610;28;8962;-65
2022/01/02 04:56:49;;;;;;;;;0.00;0.00;;;;;12.53;75.66;99920.94;5090836;28;8870;-65
2022/01/02 04:59:16;;;;;;;;;1.00;1.00;;;;;12.50;75.71;99921.19;5089743;28;8862;-65
2022/01/02 05:01:44;;;;;;;;;2.00;1.00;;;;;12.46;76.47;99925.13;5089977;28;8842;-64
2022/01/02 05:04:12;;;;;;;;;2.75;2.50;;;;;12.39;76.55;99918.63;5091481;28;8846;-64
2022/01/02 05:06:40;;;;;;;;;1.50;1.50;;;;;12.34;77.47;99912.81;5090677;28;8942;-65
2022/01/02 05:09:09;;;;;;;;;2.00;2.00;;;;;12.29;77.22;99915.03;5090679;28;8838;-65
2022/01/02 05:11:37;;;;;;;;;3.00;3.00;;;;;12.27;77.59;99919.69;5091029;28;8922;-64
2022/01/02 05:14:05;;;;;;;;;6.00;5.50;;;;;12.26;77.41;99912.66;5091233;28;8844;-64
2022/01/02 05:16:32;;;;;;;;;2.00;2.00;;;;;12.22;77.36;99906.72;5090879;28;8854;-64
2022/01/02 05:19:00;;;;;;;;;4.00;4.00;;;;;12.16;78.17;99917.09;5091145;28;9352;-65
2022/01/02 05:21:28;;;;;;;;;1.00;1.00;;;;;12.11;77.81;99922.84;5090881;28;8860;-64
2022/01/02 05:23:56;;;;;;;;;3.00;3.00;;;;;12.08;78.16;99916.94;5090022;28;8996;-64
2022/01/02 05:26:23;;;;;;;;;1.00;0.00;;;;;12.05;78.29;99922.50;5089980;28;9554;-64
2022/01/02 05:28:51;;;;;;;;;3.00;3.00;;;;;12.04;78.96;99923.50;5091322;28;8842;-63
2022/01/02 05:31:19;;;;;;;;;1.00;1.00;;;;;12.01;79.12;99910.41;5090318;28;8838;-64
2022/01/02 05:33:47;;;;;;;;;1.00;1.00;;;;;11.99;79.50;99899.00;5091117;28;8842;-65
2022/01/02 05:36:15;;;;;;;;;3.00;3.00;;;;;11.97;79.25;99892.97;5090221;28;9658;-65
2022/01/02 05:38:42;;;;;;;;;4.00;4.00;;;;;11.94;79.26;99887.91;5091091;28;8980;-64
2022/01/02 05:41:12;;;;;;;;;1.00;1.00;;;;;11.93;79.38;99868.38;5090086;28;8861;-64
2022/01/02 05:43:40;;;;;;;;;1.50;1.00;;;;;11.92;79.01;99871.19;5088929;28;8974;-65
2022/01/02 05:46:07;;;;;;;;;2.00;2.00;;;;;11.93;79.18;99870.22;5089361;28;8864;-64
2022/01/02 05:48:36;;;;;;;;;2.00;2.00;;;;;11.93;79.64;99861.34;5089785;28;8850;-64
2022/01/02 05:51:04;;;;;;;;;1.50;1.50;;;;;11.93;79.84;99862.19;5090109;28;8823;-65
2022/01/02 05:53:31;;;;;;;;;5.50;1.00;;;;;11.93;79.28;99856.88;5090921;28;8829;-64
2022/01/02 05:55:59;;;;;;;;;1.00;1.00;;;;;11.94;79.33;99854.03;5090628;28;8927;-64
2022/01/02 05:58:27;;;;;;;;;1.00;1.00;;;;;11.94;79.37;99840.69;5091270;28;8868;-64
2022/01/02 06:00:54;;;;;;;;;3.00;3.00;;;;;11.95;79.88;99842.38;5090000;28;8834;-64
2022/01/02 06:03:23;;;;;;;;;3.50;3.50;;;;;11.98;79.38;99838.63;5091223;28;9753;-64
2022/01/02 06:05:50;;;;;;;;;3.50;3.00;;;;;11.99;79.46;99834.97;5089531;28;8853;-64
2022/01/02 06:08:18;;;;;;;;;3.00;1.50;;;;;12.02;79.32;99818.69;5091303;28;8837;-64
2022/01/02 06:10:46;;;;;;;;;3.00;3.00;;;;;12.04;79.77;99814.91;5091050;28;8842;-63
2022/01/02 06:13:14;;;;;;;;;2.00;1.00;;;;;12.06;79.20;99810.28;5095290;28;8836;-64
2022/01/02 06:15:41;;;;;;;;;0.00;0.00;;;;;12.06;79.54;99815.63;5095028;28;8868;-64
2022/01/02 06:18:09;;;;;;;;;1.00;1.00;;;;;12.03;79.85;99815.03;5094330;28;8849;-64
2022/01/02 06:20:37;;;;;;;;;1.00;1.00;;;;;12.00;79.59;99805.47;5094498;28;8848;-64
2022/01/02 06:23:05;;;;;;;;;2.50;2.50;;;;;11.97;79.75;99804.91;5095390;28;8980;-64
2022/01/02 06:25:33;;;;;;;;;0.25;0.25;;;;;11.97;80.29;99804.06;5094971;28;8860;-64
2022/01/02 06:28:01;;;;;;;;;3.50;3.00;;;;;11.92;80.08;99807.16;5095249;28;8842;-65
2022/01/02 06:30:29;;;;;;;;;3.00;3.00;;;;;11.91;80.50;99809.94;5094322;28;8866;-64
2022/01/02 06:32:56;;;;;;;;;3.00;2.50;;;;;11.90;80.47;99809.09;5095306;28;8853;-64
2022/01/02 06:35:24;;;;;;;;;1.00;1.00;;;;;11.91;80.20;99810.75;5094555;28;8848;-64
2022/01/02 06:37:52;;;;;;;;;2.50;2.50;;;;;11.94;79.95;99807.84;5093874;28;8902;-64
2022/01/02 06:40:20;;;;;;;;;1.00;1.00;;;;;11.94;80.27;99799.84;5094512;28;8984;-64
2022/01/02 06:42:47;;;;;;;;;3.75;3.00;;;;;11.94;80.14;99786.50;5093915;28;8857;-64
2022/01/02 06:45:15;;;;;;;;;1.00;1.00;;;;;11.92;80.26;99776.94;5094406;28;8853;-64
2022/01/02 06:47:43;;;;;;;;;3.00;2.50;;;;;11.90;80.61;99774.41;5094040;28;8838;-64
2022/01/02 06:50:11;;;;;;;;;3.50;3.00;;;;;11.90;80.19;99757.56;5092770;28;8854;-65
2022/01/02 06:52:39;;;;;;;;;3.50;3.25;;;;;11.88;80.64;99765.69;5092427;28;8984;-64
2022/01/02 06:55:07;;;;;;;;;1.00;1.00;;;;;11.88;80.83;99752.34;5094447;28;8888;-64
2022/01/02 06:57:35;;;;;;;;;3.25;3.00;;;;;11.87;80.64;99731.97;5093450;28;8872;-64
2022/01/02 07:00:02;;;;;;;;;3.50;3.00;;;;;11.86;81.24;99727.63;5094881;28;8960;-64
2022/01/02 07:02:30;;;;;;;;;5.75;3.00;;;;;11.86;80.96;99743.63;5092178;28;8872;-64
2022/01/02 07:04:58;;;;;;;;;3.50;3.00;;;;;11.86;81.27;99751.66;5093847;28;8980;-64
2022/01/02 07:07:26;;;;;;;;;3.00;2.50;;;;;11.87;81.31;99745.31;5092143;28;8846;-64
2022/01/02 07:09:54;;;;;;;;;3.00;2.50;;;;;11.89;80.77;99751.34;5093896;28;9008;-63
2022/01/02 07:12:23;;;;;;;;;2.50;2.50;;;;;11.92;80.91;99748.44;5093840;28;8830;-64
2022/01/02 07:14:51;;;;;;;;;0.00;0.00;;;;;11.96;80.94;99731.16;5093750;28;8930;-64
2022/01/02 07:17:19;;;;;;;;;3.00;3.00;;;;;11.98;80.99;99725.69;5093400;28;8861;-65
2022/01/02 07:19:46;;;;;;;;;3.50;2.00;;;;;11.99;80.68;99728.22;5093308;28;8856;-64
2022/01/02 07:22:14;;;;;;;;;3.00;3.00;;;;;12.02;80.75;99728.78;5092357;28;8853;-64
2022/01/02 07:24:47;;;;;;;;;4.50;3.50;;;;;12.04;80.69;99726.84;5094076;28;8838;-64
2022/01/02 07:27:15;;;;;;;;;2.00;2.00;;;;;12.05;80.88;99717.00;5092956;28;8861;-64
2022/01/02 07:29:43;;;;;;;;;2.00;1.50;;;;;12.07;80.57;99709.72;5092988;28;8976;-64
2022/01/02 07:32:10;;;;;;;;;3.00;3.00;;;;;12.06;80.78;99713.34;5092820;28;8838;-64
2022/01/02 07:34:38;;;;;;;;;3.00;3.00;;;;;12.09;80.71;99703.25;5092963;28;8876;-64
2022/01/02 07:37:06;;;;;;;;;3.00;3.00;;;;;12.11;80.82;99695.97;5092356;28;8856;-64
2022/01/02 07:39:33;;;;;;;;;3.00;3.00;;;;;12.11;80.41;99687.09;5093014;28;8928;-64
2022/01/02 07:42:01;;;;;;;;;3.25;3.00;;;;;12.14;80.29;99668.13;5092233;28;8852;-64
2022/01/02 07:44:36;;;;;;;;;3.00;3.00;;;;;12.15;80.73;99669.84;5092089;28;8850;-64
2022/01/02 07:47:04;;;;;;;;;3.00;3.00;;;;;12.18;80.58;99672.22;5092969;28;9003;-64
2022/01/02 07:49:32;;;;;;;;;3.00;3.00;;;;;12.22;80.72;99665.59;5092068;28;8857;-64
2022/01/02 07:51:59;;;;;;;;;3.00;3.00;;;;;12.25;80.31;99662.66;5092156;28;8834;-64
2022/01/02 07:54:28;;;;;;;;;2.50;1.75;;;;;12.27;80.74;99666.03;5090543;28;8850;-65
2022/01/02 07:56:55;;;;;;;;;6.00;4.00;;;;;12.26;80.77;99662.53;5089406;28;8992;-65
2022/01/02 07:59:23;;;;;;;;;1.50;1.00;;;;;12.28;80.41;99665.06;5090376;28;8919;-64
2022/01/02 08:01:51;;;;;;;;;2.50;1.00;;;;;12.28;80.65;99659.72;5090993;28;8834;-65
2022/01/02 08:04:19;;;;;;;;;1.50;1.50;;;;;12.28;80.66;99657.91;5090674;28;8892;-64
2022/01/02 08:06:47;;;;;;;;;3.25;3.00;;;;;12.29;80.60;99656.06;5091806;28;8861;-65
2022/01/02 08:09:15;;;;;;;;;3.50;3.50;;;;;12.30;80.60;99657.78;5091919;28;8842;-64
2022/01/02 08:11:43;;;;;;;;;3.50;1.00;;;;;12.30;80.58;99657.78;5091217;28;8972;-64
2022/01/02 08:14:15;;;;;;;;;2.25;2.00;;;;;12.30;80.28;99642.56;5090919;28;8872;-63
2022/01/02 08:16:43;;;;;;;;;3.50;3.50;;;;;12.31;80.38;99632.75;5092301;28;9007;-64
2022/01/02 08:19:11;;;;;;;;;1.00;1.00;;;;;12.30;80.68;99602.53;5089856;28;8870;-64
2022/01/02 08:21:39;;;;;;;;;2.50;2.50;;;;;12.29;80.88;99586.63;5091136;28;8887;-65
2022/01/02 08:24:07;;;;;;;;;2.25;1.50;;;;;12.29;80.18;99566.13;5090202;28;8873;-65
2022/01/02 08:26:35;;;;;;;;;1.50;1.50;;;;;12.28;80.41;99559.13;5091955;28;8868;-64
2022/01/02 08:29:02;;;;;;;;;4.00;3.00;;;;;12.29;80.60;99522.56;5090241;28;8864;-65
2022/01/02 08:31:30;;;;;;;;;2.50;2.50;;;;;12.31;80.60;99515.28;5091400;28;8845;-65
2022/01/02 08:33:58;;;;;;;;;3.00;3.00;;;;;12.32;80.29;99501.75;5089615;28;8997;-65
2022/01/02 08:36:26;;;;;;;;;1.00;1.00;;;;;12.36;80.73;99518.34;5091569;28;8845;-64
2022/01/02 08:38:53;;;;;;;;;4.00;3.50;;;;;12.42;80.45;99521.28;5090944;28;8856;-64
2022/01/02 08:41:21;;;;;;;;;1.00;1.00;;;;;12.48;80.10;99519.88;5090412;28;8996;-65
2022/01/02 08:43:49;;;;;;;;;3.75;3.25;;;;;12.49;79.90;99502.84;5089973;28;8846;-64
2022/01/02 08:46:17;;;;;;;;;6.25;3.50;;;;;12.53;79.65;99491.72;5090391;28;8850;-64
2022/01/02 08:48:45;;;;;;;;;3.75;3.75;;;;;12.59;79.69;99487.63;5090113;28;8848;-64
2022/01/02 08:51:13;;;;;;;;;1.00;1.00;;;;;12.65;79.86;99508.41;5090772;28;8934;-64
2022/01/02 08:53:40;;;;;;;;;3.50;3.50;;;;;12.68;79.56;99502.81;5089374;28;8857;-64
2022/01/02 08:56:08;;;;;;;;;1.00;1.00;;;;;12.70;79.35;99496.31;5090699;28;8878;-63
2022/01/02 08:58:36;;;;;;;;;3.50;3.50;;;;;12.70;79.02;99490.13;5090251;28;8838;-63
2022/01/02 09:01:03;;;;;;;;;2.50;2.50;;;;;12.71;79.18;99491.81;5089646;28;8877;-64
2022/01/02 09:03:33;;;;;;;;;1.75;0.75;;;;;12.71;79.00;99502.50;5089483;28;8853;-64
2022/01/02 09:06:00;;;;;;;;;1.00;1.00;;;;;12.68;79.03;99492.13;5090260;28;8838;-63
2022/01/02 09:08:29;;;;;;;;;0.50;0.50;;;;;12.68;78.94;99492.94;5089075;28;8830;-64
2022/01/02 09:10:57;;;;;;;;;3.25;1.50;;;;;12.67;79.34;99459.22;5088957;28;9551;-64
2022/01/02 09:13:26;;;;;;;;;2.00;2.00;;;;;12.72;78.70;99458.75;5090304;28;8964;-64
2022/01/02 09:15:54;;;;;;;;;2.00;0.50;;;;;12.78;78.75;99476.88;5090599;28;8844;-64
2022/01/02 09:18:23;;;;;;;;;1.00;1.00;;;;;12.82;78.06;99479.09;5090555;28;8922;-64
2022/01/02 09:20:50;;;;;;;;;0.50;0.50;;;;;12.89;77.46;99474.00;5089780;28;8906;-63
2022/01/02 09:23:18;;;;;;;;;1.00;1.00;;;;;12.95;77.41;99502.84;5089429;28;8888;-64
2022/01/02 09:25:45;;;;;;;;;3.00;3.00;;;;;12.93;77.32;99510.16;5088351;28;8888;-63
2022/01/02 09:28:13;;;;;;;;;1.00;1.00;;;;;12.91;76.81;99515.63;5089592;28;8861;-63
2022/01/02 09:30:41;;;;;;;;;1.50;1.50;;;;;12.90;76.30;99524.63;5089465;28;8969;-64
2022/01/02 09:33:09;;;;;;;;;1.00;1.00;;;;;12.82;76.51;99529.88;5088813;28;8842;-64
2022/01/02 09:35:38;;;;;;;;;1.50;1.50;;;;;12.79;76.60;99522.16;5088983;28;8865;-64
2022/01/02 09:38:05;;;;;;;;;1.00;1.00;;;;;12.76;76.75;99521.63;5090461;28;8838;-64
2022/01/02 09:40:33;;;;;;;;;2.50;2.50;;;;;12.74;76.24;99526.25;5089599;28;8874;-64
2022/01/02 09:43:02;;;;;;;;;3.25;3.25;;;;;12.73;76.80;99544.13;5090510;28;8845;-65
2022/01/02 09:45:31;;;;;;;;;2.50;2.50;;;;;12.70;76.36;99522.19;5090380;28;9007;-65
2022/01/02 09:47:59;;;;;;;;;1.00;1.00;;;;;12.63;76.58;99505.91;5094125;28;8999;-65
2022/01/02 09:50:27;;;;;;;;;1.00;1.00;;;;;12.55;76.84;99499.59;5093562;28;8952;-65
2022/01/02 09:52:55;;;;;;;;;0.00;0.00;;;;;12.54;76.85;99482.72;5094102;28;8850;-64
2022/01/02 09:55:23;;;;;;;;;3.00;1.00;;;;;12.59;75.94;99475.13;5093362;28;8842;-64
2022/01/02 09:57:52;;;;;;;;;1.00;1.00;;;;;12.70;75.71;99472.25;5093994;28;8947;-65
2022/01/02 10:00:20;;;;;;;;;0.00;0.00;;;;;12.76;75.22;99461.00;5093185;28;8866;-64
2022/01/02 10:02:48;;;;;;;;;2.50;2.50;;;;;12.66;75.02;99470.03;5091335;28;8814;-64
2022/01/02 10:05:16;;;;;;;;;1.00;1.00;;;;;12.46;75.30;99471.94;5090682;28;8868;-65
2022/01/02 10:07:44;;;;;;;;;1.00;1.00;;;;;12.37;75.28;99488.81;5092347;28;8850;-64
2022/01/02 10:10:12;;;;;;;;;3.00;3.00;;;;;12.43;75.28;99487.41;5091128;28;8980;-65
2022/01/02 10:12:40;;;;;;;;;3.50;3.00;;;;;12.54;74.67;99503.25;5091999;28;9004;-64
2022/01/02 10:15:08;;;;;;;;;2.00;2.00;;;;;12.66;74.08;99496.75;5090240;28;9008;-65
2022/01/02 10:17:36;;;;;;;;;0.25;0.25;;;;;12.67;73.71;99490.41;5091861;28;8980;-65
2022/01/02 10:20:03;;;;;;;;;3.00;3.00;;;;;12.40;74.08;99471.69;5093291;28;8854;-65
2022/01/02 10:22:31;;;;;;;;;2.50;1.00;;;;;12.09;75.06;99478.22;5093389;28;8834;-64
2022/01/02 10:24:59;;;;;;;;;3.00;2.50;;;;;11.87;75.82;99465.19;5092141;28;8864;-65
2022/01/02 10:27:27;;;;;;;;;3.00;3.00;;;;;11.75;76.73;99463.63;5093168;28;9023;-65
2022/01/02 10:29:55;;;;;;;;;1.75;0.75;;;;;11.88;75.59;99490.00;5092652;28;8850;-64
2022/01/02 10:32:22;;;;;;;;;1.50;1.50;;;;;12.13;75.11;99495.59;5091280;28;8845;-64
2022/01/02 10:34:53;;;;;;;;;1.00;0.00;;;;;12.35;75.04;99508.63;5090375;28;8838;-65
2022/01/02 10:37:20;;;;;;;;;2.00;1.00;;;;;12.50;73.84;99508.06;5092728;28;8853;-65
2022/01/02 10:39:48;;;;;;;;;1.00;1.00;;;;;12.40;74.07;99509.06;5091078;28;8864;-66
2022/01/02 10:42:16;;;;;;;;;0.00;0.00;;;;;12.09;75.53;99472.88;5091291;28;8861;-65
2022/01/02 10:44:44;;;;;;;;;3.00;3.00;;;;;11.93;75.49;99485.09;5091495;28;8983;-63
2022/01/02 10:47:13;;;;;;;;;0.50;0.50;;;;;11.90;75.75;99496.06;5089999;28;8983;-63
2022/01/02 10:49:41;;;;;;;;;1.00;1.00;;;;;11.80;76.25;99501.41;5091342;28;9557;-64
2022/01/02 10:52:09;;;;;;;;;4.00;3.50;;;;;11.80;76.57;99497.88;5091762;28;8852;-65
2022/01/02 10:54:36;;;;;;;;;1.50;1.00;;;;;11.95;75.76;99506.16;5092783;28;8849;-66
2022/01/02 10:57:04;;;;;;;;;1.00;1.00;;;;;12.10;75.46;99490.56;5088612;28;8873;-65
2022/01/02 10:59:32;;;;;;;;;3.50;1.00;;;;;12.23;74.73;99478.59;5089578;28;8861;-65
2022/01/02 11:02:00;;;;;;;;;3.00;3.00;;;;;12.34;74.36;99483.78;5089952;28;8837;-63
2022/01/02 11:04:30;;;;;;;;;2.00;2.00;;;;;12.48;74.03;99463.78;5089549;28;9964;-66
2022/01/02 11:06:58;;;;;;;;;1.00;1.00;;;;;12.54;74.05;99466.69;5090404;28;8934;-65
2022/01/02 11:09:26;;;;;;;;;3.50;3.25;;;;;12.60;74.09;99462.63;5091514;28;8876;-66
2022/01/02 11:11:55;;;;;;;;;4.00;4.00;;;;;12.65;74.21;99460.34;5090774;28;8850;-63
2022/01/02 11:14:23;;;;;;;;;3.00;2.00;;;;;12.66;73.75;99440.63;5091717;28;8911;-65
2022/01/02 11:16:50;;;;;;;;;4.00;3.00;;;;;12.65;73.78;99455.00;5089211;28;8872;-65
2022/01/02 11:19:18;;;;;;;;;2.00;2.00;;;;;12.64;73.52;99447.97;5089637;28;8830;-64
2022/01/02 11:21:46;;;;;;;;;3.00;3.00;;;;;12.65;73.67;99460.34;5090566;28;9922;-64
2022/01/02 11:24:13;;;;;;;;;1.00;1.00;;;;;12.76;73.63;99457.50;5090004;28;9516;-65
2022/01/02 11:26:41;;;;;;;;;3.00;3.00;;;;;12.85;72.99;99460.09;5090737;28;8959;-66
2022/01/02 11:29:14;;;;;;;;;3.00;2.00;;;;;12.90;72.89;99454.34;5092274;28;8988;-66
2022/01/02 11:31:43;;;;;;;;;3.75;3.00;;;;;12.95;73.17;99449.41;5090174;28;8849;-65
2022/01/02 11:34:11;;;;;;;;;3.00;3.00;;;;;13.06;72.61;99465.25;5089512;28;8862;-64
2022/01/02 11:36:39;;;;;;;;;4.00;4.00;;;;;13.13;72.77;99452.97;5089097;28;8845;-64
2022/01/02 11:39:07;;;;;;;;;2.50;2.50;;;;;13.16;72.31;99455.31;5088063;28;8876;-64
2022/01/02 11:41:35;;;;;;;;;1.50;1.00;;;;;13.17;72.52;99465.03;5086721;28;8857;-65
2022/01/02 11:44:03;;;;;;;;;2.50;2.50;;;;;13.16;72.25;99461.53;5089365;28;8968;-63
2022/01/02 11:46:31;;;;;;;;;3.00;3.00;;;;;13.18;72.75;99448.00;5088538;28;8861;-64